Time;durP1;ratioP1;P1;durP2;ratioP2;P2;SDS_P1;SDS_P2;PMS_P1;PMS_P2;Temp;Humidity;BMP_temperature;BMP_pressure;BME280_temperature;BME280_humidity;BME280_pressure;Samples;Min_cycle;Max_cycle;Signal;HPM_P1;HPM_P2
2023/09/22 00:00:48;;;;;;;5.15;1.10;;;14.80;99.90;;;;;;5044799;28;20193;-73
2023/09/22 00:03:19;;;;;;;6.97;1.10;;;14.80;99.90;;;;;;5036709;28;21162;-74
2023/09/22 00:05:52;;;;;;;7.93;1.42;;;14.90;99.90;;;;;;5051514;28;20655;-73
2023/09/22 00:08:22;;;;;;;7.55;1.50;;;15.10;99.90;;;;;;5045622;28;20214;-73
2023/09/22 00:10:53;;;;;;;6.38;1.20;;;15.20;99.90;;;;;;5034765;28;20638;-74
2023/09/22 00:13:26;;;;;;;6.85;1.23;;;15.30;99.90;;;;;;5033617;28;20201;-73
2023/09/22 00:15:57;;;;;;;8.70;0.95;;;15.40;99.90;;;;;;5033854;28;20205;-73
2023/09/22 00:18:27;;;;;;;4.43;0.85;;;15.30;99.90;;;;;;5033883;28;20230;-74
2023/09/22 00:20:58;;;;;;;5.20;1.10;;;15.30;99.90;;;;;;5033179;28;20198;-73
2023/09/22 00:23:29;;;;;;;6.25;1.17;;;15.30;99.90;;;;;;5034576;28;20551;-74
2023/09/22 00:25:59;;;;;;;5.38;1.00;;;15.30;99.90;;;;;;5044155;28;20201;-73
2023/09/22 00:28:32;;;;;;;7.43;1.00;;;15.40;99.90;;;;;;5046887;28;20577;-73
2023/09/22 00:31:03;;;;;;;6.93;1.27;;;15.50;99.90;;;;;;5053761;28;20220;-73
2023/09/22 00:33:34;;;;;;;8.07;0.90;;;15.70;99.90;;;;;;5051924;28;20247;-74
2023/09/22 00:36:08;;;;;;;9.05;1.02;;;15.90;99.90;;;;;;5047468;28;20198;-74
2023/09/22 00:38:39;;;;;;;5.97;1.00;;;16.10;99.90;;;;;;5033845;28;20209;-74
2023/09/22 00:41:10;;;;;;;6.18;0.80;;;16.40;99.90;;;;;;5032914;28;20525;-74
2023/09/22 00:43:43;;;;;;;3.92;0.82;;;16.40;99.90;;;;;;5047322;28;20654;-73
2023/09/22 00:46:14;;;;;;;4.70;1.00;;;16.40;99.90;;;;;;5050253;28;20198;-75
2023/09/22 00:48:45;;;;;;;7.28;1.00;;;16.60;99.90;;;;;;5035316;28;20224;-74
2023/09/22 00:51:19;;;;;;;4.95;0.95;;;16.80;99.90;;;;;;5033946;28;20301;-74
2023/09/22 00:53:52;;;;;;;4.55;1.10;;;17.00;99.90;;;;;;5033045;28;20275;-74
2023/09/22 00:56:24;;;;;;;4.60;1.15;;;17.30;99.90;;;;;;5035365;28;20193;-75
2023/09/22 00:58:58;;;;;;;6.28;1.33;;;17.20;99.90;;;;;;5041479;28;20187;-73
2023/09/22 01:01:28;;;;;;;3.55;0.75;;;17.20;99.90;;;;;;5038038;28;20199;-74
2023/09/22 01:03:59;;;;;;;3.55;0.80;;;17.30;99.90;;;;;;5052821;28;20216;-74
2023/09/22 01:06:31;;;;;;;6.38;0.93;;;17.50;99.90;;;;;;5032164;28;20713;-73
2023/09/22 01:09:05;;;;;;;4.60;0.98;;;17.60;99.90;;;;;;5041237;28;20210;-74
2023/09/22 01:11:36;;;;;;;3.05;0.80;;;17.60;99.90;;;;;;5032918;28;20206;-74
2023/09/22 01:14:09;;;;;;;2.97;0.77;;;17.90;99.90;;;;;;5043988;28;20202;-75
2023/09/22 01:16:41;;;;;;;3.85;0.80;;;18.20;99.90;;;;;;5051679;28;20665;-75
2023/09/22 01:19:16;;;;;;;4.80;0.80;;;18.20;99.90;;;;;;5055560;28;20647;-75
2023/09/22 01:21:49;;;;;;;5.00;0.80;;;17.90;99.90;;;;;;5049760;28;20201;-75
2023/09/22 01:24:20;;;;;;;6.95;1.05;;;18.00;99.90;;;;;;5048385;28;20204;-75
2023/09/22 01:26:50;;;;;;;7.13;0.90;;;17.80;99.90;;;;;;5040774;28;20190;-76
2023/09/22 01:29:21;;;;;;;6.75;1.00;;;17.70;99.90;;;;;;5049078;28;20220;-75
2023/09/22 01:31:52;;;;;;;6.65;1.33;;;17.90;99.90;;;;;;5036870;28;20279;-74
2023/09/22 01:34:23;;;;;;;4.63;0.90;;;17.90;99.90;;;;;;5050908;28;20660;-75
2023/09/22 01:36:57;;;;;;;3.65;0.68;;;17.80;99.90;;;;;;5056593;28;20186;-76
2023/09/22 01:39:28;;;;;;;2.78;0.60;;;17.90;99.90;;;;;;5053543;28;20205;-76
2023/09/22 01:41:59;;;;;;;5.75;1.10;;;18.00;99.90;;;;;;5043537;28;20224;-75
2023/09/22 01:44:30;;;;;;;3.88;0.55;;;18.00;99.90;;;;;;5040672;28;20201;-76
2023/09/22 01:47:00;;;;;;;4.07;0.77;;;18.00;99.90;;;;;;5048030;28;20197;-76
2023/09/22 01:49:31;;;;;;;6.05;0.98;;;17.90;99.90;;;;;;5046368;28;20688;-75
2023/09/22 01:52:04;;;;;;;4.03;0.82;;;18.20;99.90;;;;;;5043361;28;20194;-75
2023/09/22 01:54:35;;;;;;;5.72;1.05;;;18.40;99.90;;;;;;5044433;28;20198;-75
2023/09/22 01:57:05;;;;;;;4.82;1.10;;;18.30;99.90;;;;;;5051343;28;20185;-76
2023/09/22 01:59:36;;;;;;;4.70;0.70;;;18.30;99.90;;;;;;5052146;28;20197;-74
2023/09/22 02:02:07;;;;;;;5.55;0.80;;;18.20;99.90;;;;;;5039302;28;20202;-76
2023/09/22 02:04:38;;;;;;;5.65;0.93;;;18.00;99.90;;;;;;5048838;28;20315;-75
2023/09/22 02:07:10;;;;;;;7.20;1.02;;;18.00;99.90;;;;;;5035851;28;20230;-76
2023/09/22 02:09:41;;;;;;;3.03;0.80;;;18.00;99.90;;;;;;5050237;28;20218;-76
2023/09/22 02:12:12;;;;;;;5.25;0.90;;;17.90;99.90;;;;;;5048948;28;20213;-77
2023/09/22 02:14:43;;;;;;;6.22;1.30;;;17.90;99.90;;;;;;5051543;28;20202;-76
2023/09/22 02:17:15;;;;;;;4.45;0.80;;;18.00;99.90;;;;;;5044260;28;20204;-75
2023/09/22 02:19:45;;;;;;;7.75;1.02;;;18.00;99.90;;;;;;5044358;28;20205;-75
2023/09/22 02:22:18;;;;;;;5.53;1.30;;;18.00;99.90;;;;;;5038220;28;20201;-75
2023/09/22 02:24:49;;;;;;;5.78;1.10;;;18.10;99.90;;;;;;5045640;28;20243;-75
2023/09/22 02:27:20;;;;;;;5.40;1.02;;;18.20;99.90;;;;;;5050002;28;20862;-75
2023/09/22 02:29:50;;;;;;;9.85;1.33;;;18.20;99.90;;;;;;5045886;28;20222;-76
2023/09/22 02:32:21;;;;;;;7.25;1.05;;;18.20;99.90;;;;;;5043617;28;20687;-75
2023/09/22 02:34:52;;;;;;;6.03;0.93;;;18.20;99.90;;;;;;5042730;28;20226;-76
2023/09/22 02:37:25;;;;;;;6.25;0.93;;;18.10;99.90;;;;;;5034255;28;20198;-76
2023/09/22 02:39:56;;;;;;;4.38;0.80;;;18.00;99.90;;;;;;5040230;28;20204;-76
2023/09/22 02:42:26;;;;;;;7.18;1.15;;;17.80;99.90;;;;;;5051105;28;20194;-75
2023/09/22 02:44:57;;;;;;;7.30;1.27;;;17.80;99.90;;;;;;5044922;28;20202;-77
2023/09/22 02:47:30;;;;;;;5.30;0.77;;;17.60;99.90;;;;;;5035921;28;20564;-76
2023/09/22 02:50:01;;;;;;;6.93;1.58;;;17.50;99.90;;;;;;5047420;28;20240;-76
2023/09/22 02:52:35;;;;;;;3.30;0.80;;;17.50;99.90;;;;;;5049903;28;20206;-75
2023/09/22 02:55:06;;;;;;;4.40;1.00;;;17.50;99.90;;;;;;5046925;28;20194;-76
2023/09/22 02:57:38;;;;;;;5.30;1.08;;;17.60;99.90;;;;;;5054942;28;20193;-76
2023/09/22 03:00:14;;;;;;;5.00;0.90;;;17.50;99.90;;;;;;5049170;28;20205;-75
2023/09/22 03:02:45;;;;;;;6.20;0.90;;;17.60;99.90;;;;;;5044682;28;20294;-75
2023/09/22 03:05:16;;;;;;;5.18;0.93;;;17.70;99.90;;;;;;5036917;28;20241;-75
2023/09/22 03:07:49;;;;;;;3.60;0.90;;;17.70;99.90;;;;;;5038998;28;20252;-75
2023/09/22 03:10:20;;;;;;;4.80;1.10;;;17.70;99.90;;;;;;5034438;28;20614;-74
2023/09/22 03:12:53;;;;;;;6.82;1.10;;;17.70;99.90;;;;;;5034911;28;20194;-74
2023/09/22 03:15:25;;;;;;;3.47;0.85;;;17.60;99.90;;;;;;5037651;28;20202;-75
2023/09/22 03:17:56;;;;;;;7.72;1.17;;;17.50;99.90;;;;;;5051087;28;20540;-75
2023/09/22 03:20:27;;;;;;;6.63;1.10;;;17.40;99.90;;;;;;5045078;28;20182;-76
2023/09/22 03:22:59;;;;;;;5.28;0.90;;;17.30;99.90;;;;;;5044232;28;20202;-75
2023/09/22 03:25:30;;;;;;;6.63;1.25;;;17.30;99.90;;;;;;5037635;28;20202;-75
2023/09/22 03:28:01;;;;;;;5.40;1.00;;;17.30;99.90;;;;;;5037287;28;22098;-75
2023/09/22 03:30:32;;;;;;;5.00;1.10;;;17.20;99.90;;;;;;5050288;28;20220;-75
2023/09/22 03:33:02;;;;;;;3.85;1.50;;;17.10;99.90;;;;;;5045392;28;20202;-75
2023/09/22 03:35:36;;;;;;;6.53;3.00;;;17.10;99.90;;;;;;5039748;28;20199;-75
2023/09/22 03:38:09;;;;;;;7.18;0.90;;;17.10;99.90;;;;;;5050459;28;20289;-74
2023/09/22 03:40:42;;;;;;;3.05;0.65;;;17.10;99.90;;;;;;5038419;28;20205;-74
2023/09/22 03:43:13;;;;;;;2.78;0.90;;;17.10;99.90;;;;;;5045082;28;20198;-75
2023/09/22 03:45:44;;;;;;;4.65;0.80;;;17.10;99.90;;;;;;5051497;28;20208;-76
2023/09/22 03:48:15;;;;;;;5.38;0.80;;;17.10;99.90;;;;;;5045965;28;20281;-75
2023/09/22 03:50:46;;;;;;;7.93;0.90;;;17.10;99.90;;;;;;5047703;28;20244;-76
2023/09/22 03:53:18;;;;;;;5.88;1.33;;;17.10;99.90;;;;;;5054208;28;20201;-75
2023/09/22 03:55:49;;;;;;;5.20;0.80;;;17.10;99.90;;;;;;5046573;28;20268;-75
2023/09/22 03:58:20;;;;;;;5.18;0.80;;;17.30;99.90;;;;;;5037800;28;20224;-76
2023/09/22 04:00:53;;;;;;;4.30;0.82;;;17.40;99.90;;;;;;5035582;28;20210;-76
2023/09/22 04:03:24;;;;;;;4.32;0.70;;;17.70;99.90;;;;;;5043422;28;20190;-76
2023/09/22 04:05:55;;;;;;;6.45;0.90;;;17.70;99.90;;;;;;5034907;28;20234;-76
2023/09/22 04:08:28;;;;;;;5.15;0.95;;;17.70;99.90;;;;;;5045553;28;20194;-76
2023/09/22 04:11:02;;;;;;;7.30;1.10;;;17.80;99.90;;;;;;5044739;28;20648;-76
2023/09/22 04:13:33;;;;;;;4.68;0.88;;;17.80;99.90;;;;;;5039734;28;20603;-76
2023/09/22 04:16:04;;;;;;;3.85;0.73;;;17.90;99.90;;;;;;5041152;28;20209;-76
2023/09/22 04:18:35;;;;;;;4.45;0.77;;;18.00;99.90;;;;;;5053710;28;20612;-76
2023/09/22 04:21:07;;;;;;;7.03;1.20;;;18.00;99.90;;;;;;5052224;28;20209;-75
2023/09/22 04:23:45;;;;;;;6.28;0.93;;;18.00;99.90;;;;;;5045736;28;20192;-76
2023/09/22 04:26:16;;;;;;;3.28;0.80;;;18.00;99.90;;;;;;5050504;28;20545;-76
2023/09/22 04:28:47;;;;;;;5.55;0.90;;;18.00;99.90;;;;;;5045314;28;20260;-76
2023/09/22 04:31:19;;;;;;;5.07;0.90;;;18.00;99.90;;;;;;5039817;28;20685;-76
2023/09/22 04:33:51;;;;;;;6.32;0.90;;;18.00;99.90;;;;;;5044140;28;20198;-76
2023/09/22 04:36:23;;;;;;;3.55;0.70;;;18.00;99.90;;;;;;5031510;28;20286;-77
2023/09/22 04:38:55;;;;;;;5.05;0.77;;;18.10;99.90;;;;;;5038030;28;20252;-76
2023/09/22 04:41:26;;;;;;;4.05;1.00;;;18.00;99.90;;;;;;5037161;28;20193;-76
2023/09/22 04:43:57;;;;;;;5.82;0.90;;;17.90;99.90;;;;;;5033466;28;20200;-75
2023/09/22 04:46:28;;;;;;;4.70;0.82;;;17.80;99.90;;;;;;5036590;28;20197;-76
2023/09/22 04:48:58;;;;;;;3.65;0.80;;;17.70;99.90;;;;;;5038628;28;20206;-76
2023/09/22 04:51:32;;;;;;;5.25;1.15;;;17.70;99.90;;;;;;5037080;28;20626;-76
2023/09/22 04:54:04;;;;;;;5.93;0.82;;;17.80;99.90;;;;;;5042226;28;20541;-76
2023/09/22 04:56:35;;;;;;;3.97;0.60;;;17.80;99.90;;;;;;5043388;28;20197;-76
2023/09/22 04:59:07;;;;;;;4.80;1.23;;;17.80;99.90;;;;;;5046072;28;20197;-77
2023/09/22 05:01:38;;;;;;;5.25;0.80;;;17.80;99.90;;;;;;5039236;28;20202;-77
2023/09/22 05:04:10;;;;;;;3.92;0.85;;;17.80;99.90;;;;;;5052872;28;20190;-77
2023/09/22 05:06:43;;;;;;;3.40;0.68;;;17.80;99.90;;;;;;5042503;28;20236;-77
2023/09/22 05:09:15;;;;;;;5.07;0.80;;;17.70;99.90;;;;;;5048095;28;20207;-76
2023/09/22 05:11:46;;;;;;;3.53;0.70;;;17.60;99.90;;;;;;5037533;28;20206;-77
2023/09/22 05:14:17;;;;;;;4.75;0.77;;;17.50;99.90;;;;;;5033108;28;20205;-76
2023/09/22 05:16:48;;;;;;;4.00;0.60;;;17.50;99.90;;;;;;5036599;28;20198;-76
2023/09/22 05:19:19;;;;;;;5.35;0.75;;;17.50;99.90;;;;;;5036991;28;20240;-76
2023/09/22 05:21:50;;;;;;;3.58;0.80;;;17.50;99.90;;;;;;5037251;28;20285;-76
2023/09/22 05:24:22;;;;;;;5.20;0.70;;;17.60;99.90;;;;;;5038102;28;20285;-76
2023/09/22 05:26:53;;;;;;;2.40;0.77;;;17.70;99.90;;;;;;5032194;28;20225;-76
2023/09/22 05:29:24;;;;;;;4.25;0.90;;;17.70;99.90;;;;;;5038578;28;20738;-76
2023/09/22 05:31:55;;;;;;;3.95;0.68;;;17.70;99.90;;;;;;5034360;28;20193;-76
2023/09/22 05:34:26;;;;;;;2.70;0.60;;;17.70;99.90;;;;;;5050683;28;20194;-76
2023/09/22 05:36:56;;;;;;;2.13;0.60;;;17.80;99.90;;;;;;5045118;28;20551;-77
2023/09/22 05:39:29;;;;;;;5.38;0.60;;;17.70;99.90;;;;;;5046904;28;20203;-76
2023/09/22 05:42:00;;;;;;;6.47;0.85;;;17.70;99.90;;;;;;5039786;28;20201;-76
2023/09/22 05:44:32;;;;;;;5.65;0.85;;;17.70;99.90;;;;;;5049177;28;20207;-76
2023/09/22 05:47:03;;;;;;;4.72;0.70;;;17.60;99.90;;;;;;5052391;28;20263;-76
2023/09/22 05:49:34;;;;;;;5.35;1.02;;;17.60;99.90;;;;;;5048637;28;20304;-76
2023/09/22 05:52:05;;;;;;;6.10;0.95;;;17.60;99.90;;;;;;5046593;28;20197;-77
2023/09/22 05:54:38;;;;;;;4.45;0.80;;;17.50;99.90;;;;;;5032855;28;20240;-76
2023/09/22 05:57:09;;;;;;;5.25;0.93;;;17.50;99.90;;;;;;5041143;28;20232;-77
2023/09/22 05:59:40;;;;;;;6.78;0.90;;;17.60;99.90;;;;;;5037195;28;20194;-77
2023/09/22 06:02:11;;;;;;;5.72;0.73;;;17.60;99.90;;;;;;5042823;28;20200;-77
2023/09/22 06:04:41;;;;;;;4.25;0.73;;;17.60;99.90;;;;;;5034225;28;20205;-76
2023/09/22 06:07:14;;;;;;;6.50;0.80;;;17.60;99.90;;;;;;5053177;28;20234;-76
2023/09/22 06:09:46;;;;;;;2.67;0.60;;;17.60;99.90;;;;;;5044827;28;20205;-77
2023/09/22 06:12:18;;;;;;;2.35;0.50;;;17.60;99.90;;;;;;5053205;28;20267;-77
2023/09/22 06:14:49;;;;;;;3.00;0.60;;;17.60;99.90;;;;;;5046465;28;20202;-81
2023/09/22 06:17:19;;;;;;;7.10;0.70;;;17.40;99.90;;;;;;5035372;28;20230;-76
2023/09/22 06:19:50;;;;;;;2.25;0.50;;;17.40;99.90;;;;;;5037556;28;20204;-78
2023/09/22 06:22:21;;;;;;;2.97;0.52;;;17.40;99.90;;;;;;5040381;28;20280;-76
2023/09/22 06:24:56;;;;;;;3.45;0.60;;;17.40;99.90;;;;;;5038982;28;21191;-76
2023/09/22 06:27:28;;;;;;;5.65;0.70;;;17.40;99.90;;;;;;5048628;28;20196;-76
2023/09/22 06:29:58;;;;;;;5.15;0.80;;;17.30;99.90;;;;;;5053957;28;20228;-76
2023/09/22 06:32:31;;;;;;;2.83;0.70;;;17.30;99.90;;;;;;5055531;28;20190;-76
2023/09/22 06:35:06;;;;;;;3.30;0.60;;;17.30;99.90;;;;;;5041287;28;20210;-76
2023/09/22 06:37:36;;;;;;;4.40;0.93;;;17.30;99.90;;;;;;5036153;28;20201;-75
2023/09/22 06:40:11;;;;;;;3.25;0.60;;;17.20;99.90;;;;;;5040245;28;20194;-76
2023/09/22 06:42:44;;;;;;;3.20;0.68;;;17.20;99.90;;;;;;5053558;28;20196;-76
2023/09/22 06:45:16;;;;;;;4.95;0.90;;;17.20;99.90;;;;;;5054017;28;20202;-76
2023/09/22 06:47:47;;;;;;;2.17;0.70;;;17.10;99.90;;;;;;5047878;28;20202;-77
2023/09/22 06:50:17;;;;;;;2.60;0.75;;;17.00;99.90;;;;;;5044976;28;20241;-77
2023/09/22 06:52:48;;;;;;;2.70;0.80;;;17.00;99.90;;;;;;5047906;28;20201;-76
2023/09/22 06:55:21;;;;;;;2.25;0.70;;;17.00;99.90;;;;;;5044064;28;20197;-76
2023/09/22 06:57:52;;;;;;;5.00;0.80;;;16.90;99.90;;;;;;5053323;28;20198;-76
2023/09/22 07:00:24;;;;;;;4.38;0.80;;;16.80;99.90;;;;;;5053409;28;20212;-76
2023/09/22 07:02:54;;;;;;;3.40;0.80;;;16.70;99.90;;;;;;5054968;28;20603;-76
2023/09/22 07:05:25;;;;;;;3.78;0.70;;;16.70;99.90;;;;;;5041773;28;20236;-76
2023/09/22 07:07:57;;;;;;;4.88;0.95;;;16.60;99.90;;;;;;5045344;28;21041;-77
2023/09/22 07:10:30;;;;;;;2.08;0.80;;;16.60;99.90;;;;;;5042138;28;20218;-76
2023/09/22 07:13:02;;;;;;;7.35;1.00;;;16.60;99.90;;;;;;5047659;28;20626;-76
2023/09/22 07:15:33;;;;;;;4.22;0.80;;;16.50;99.90;;;;;;5042060;28;20207;-76
2023/09/22 07:18:05;;;;;;;3.75;0.70;;;16.50;99.90;;;;;;5034511;28;20201;-76
2023/09/22 07:20:35;;;;;;;3.55;0.80;;;16.50;99.90;;;;;;5047354;28;20201;-76
2023/09/22 07:23:06;;;;;;;6.57;0.80;;;16.50;99.90;;;;;;5053035;28;20198;-75
2023/09/22 07:25:39;;;;;;;5.10;0.88;;;16.40;99.90;;;;;;5049189;28;20202;-76
2023/09/22 07:28:11;;;;;;;4.15;0.88;;;16.40;99.90;;;;;;5040312;28;20681;-75
2023/09/22 07:30:42;;;;;;;4.75;0.80;;;16.30;99.90;;;;;;5043368;28;20214;-75
2023/09/22 07:33:13;;;;;;;3.55;0.90;;;16.30;99.90;;;;;;5040817;28;20206;-77
2023/09/22 07:35:44;;;;;;;3.22;0.63;;;16.20;99.90;;;;;;5052391;28;20206;-76
2023/09/22 07:38:15;;;;;;;4.38;0.77;;;16.10;99.90;;;;;;5044945;28;20213;-76
2023/09/22 07:40:49;;;;;;;3.33;0.60;;;16.00;99.90;;;;;;5038391;28;20610;-76
2023/09/22 07:43:20;;;;;;;5.25;0.90;;;16.00;99.90;;;;;;5045102;28;20196;-76
2023/09/22 07:45:51;;;;;;;2.90;0.80;;;15.90;99.90;;;;;;5047034;28;20198;-77
2023/09/22 07:48:22;;;;;;;3.15;1.00;;;15.90;99.90;;;;;;5043315;28;20198;-76
2023/09/22 07:50:53;;;;;;;2.95;0.82;;;15.80;99.90;;;;;;5041241;28;20237;-76
2023/09/22 07:53:25;;;;;;;3.35;1.05;;;15.80;99.90;;;;;;5041598;28;20209;-76
2023/09/22 07:55:59;;;;;;;4.05;0.70;;;15.70;99.90;;;;;;5045827;28;20202;-76
2023/09/22 07:58:30;;;;;;;2.05;0.77;;;15.70;99.90;;;;;;5044787;28;20200;-78
2023/09/22 08:01:01;;;;;;;3.70;0.60;;;15.70;99.90;;;;;;5041686;28;20564;-77
2023/09/22 08:03:31;;;;;;;1.83;0.60;;;15.60;99.90;;;;;;5038597;28;20202;-76
2023/09/22 08:06:05;;;;;;;2.95;0.68;;;15.60;99.90;;;;;;5052605;28;20233;-76
2023/09/22 08:08:35;;;;;;;4.22;1.10;;;15.60;99.90;;;;;;5034377;28;20661;-76
2023/09/22 08:11:08;;;;;;;5.38;0.90;;;15.60;99.90;;;;;;5040451;28;20232;-76
2023/09/22 08:13:39;;;;;;;3.40;0.82;;;15.50;99.90;;;;;;5040049;28;20197;-76
2023/09/22 08:16:13;;;;;;;3.97;0.77;;;15.50;99.90;;;;;;5034446;28;20202;-75
2023/09/22 08:18:44;;;;;;;3.22;0.80;;;15.50;99.90;;;;;;5038177;28;20206;-76
2023/09/22 08:21:14;;;;;;;2.40;0.90;;;15.40;99.90;;;;;;5049740;28;20198;-76
2023/09/22 08:23:45;;;;;;;2.65;1.00;;;15.40;99.90;;;;;;5047134;28;20190;-76
2023/09/22 08:26:19;;;;;;;2.38;1.20;;;15.40;99.90;;;;;;5039945;28;20213;-76
2023/09/22 08:28:50;;;;;;;3.78;0.98;;;15.30;99.90;;;;;;5048180;28;20201;-76
2023/09/22 08:31:21;;;;;;;3.00;0.88;;;15.30;99.90;;;;;;5041403;28;20217;-76
2023/09/22 08:33:51;;;;;;;2.00;0.90;;;15.30;99.90;;;;;;5039496;28;20197;-76
2023/09/22 08:36:22;;;;;;;5.25;1.20;;;15.30;99.90;;;;;;5040372;28;20216;-75
2023/09/22 08:38:53;;;;;;;2.08;0.80;;;15.20;99.90;;;;;;5041321;28;20200;-76
2023/09/22 08:41:26;;;;;;;2.90;0.90;;;15.20;99.90;;;;;;5043364;28;20669;-76
2023/09/22 08:43:58;;;;;;;3.58;1.08;;;15.20;99.90;;;;;;5051133;28;20197;-75
2023/09/22 08:46:28;;;;;;;3.90;1.00;;;15.20;99.90;;;;;;5035736;28;20208;-76
2023/09/22 08:48:59;;;;;;;3.90;1.10;;;15.20;99.90;;;;;;5044656;28;20226;-76
2023/09/22 08:51:31;;;;;;;3.33;0.93;;;15.20;99.90;;;;;;5047365;28;20214;-76
2023/09/22 08:54:01;;;;;;;3.20;1.08;;;15.20;99.90;;;;;;5046941;28;20205;-77
2023/09/22 08:56:34;;;;;;;4.28;0.88;;;15.20;99.90;;;;;;5039763;28;20197;-76
2023/09/22 08:59:05;;;;;;;4.47;1.20;;;15.30;99.90;;;;;;5049745;28;20204;-76
2023/09/22 09:01:36;;;;;;;2.67;0.98;;;15.30;99.90;;;;;;5042141;28;20201;-75
2023/09/22 09:04:33;;;;;;;6.78;1.45;;;15.30;99.90;;;;;;5052716;28;20197;-76
2023/09/22 09:07:04;;;;;;;4.57;1.30;;;15.30;99.90;;;;;;5043520;28;20242;-76
2023/09/22 09:09:45;;;;;;;4.60;1.30;;;15.40;99.90;;;;;;5038762;28;20194;-76
2023/09/22 09:12:18;;;;;;;3.75;1.00;;;15.40;99.90;;;;;;5047685;28;20721;-75
2023/09/22 09:14:49;;;;;;;3.55;1.08;;;15.30;99.90;;;;;;5040813;28;20198;-75
2023/09/22 09:17:24;;;;;;;3.63;0.93;;;15.40;99.90;;;;;;5049307;28;20198;-75
2023/09/22 09:19:58;;;;;;;2.72;0.82;;;15.40;99.90;;;;;;5041950;28;20242;-76
2023/09/22 09:22:35;;;;;;;4.03;1.00;;;15.30;99.90;;;;;;5041306;28;20553;-75
2023/09/22 09:25:09;;;;;;;1.95;1.10;;;15.30;99.90;;;;;;5049063;28;20653;-75
2023/09/22 09:27:43;;;;;;;2.17;0.57;;;15.40;99.90;;;;;;5052699;28;20276;-76
2023/09/22 09:30:15;;;;;;;3.10;0.82;;;15.30;99.90;;;;;;5039262;28;20200;-76
2023/09/22 09:32:47;;;;;;;4.20;1.00;;;15.30;99.90;;;;;;5034003;28;20304;-76
2023/09/22 09:35:30;;;;;;;3.15;0.90;;;15.30;99.90;;;;;;5035780;28;20220;-75
2023/09/22 09:38:05;;;;;;;3.78;0.95;;;15.30;99.90;;;;;;5048868;28;20657;-76
2023/09/22 09:40:37;;;;;;;4.97;1.10;;;15.30;99.90;;;;;;5045504;28;20194;-75
2023/09/22 09:43:12;;;;;;;2.45;0.98;;;15.20;99.90;;;;;;5049777;28;20205;-75
2023/09/22 09:45:48;;;;;;;3.45;0.90;;;15.20;99.90;;;;;;5055569;28;20763;-75
2023/09/22 09:48:21;;;;;;;2.92;0.90;;;15.20;99.90;;;;;;5056554;28;20303;-76
2023/09/22 09:50:57;;;;;;;3.65;1.30;;;15.20;99.90;;;;;;5055995;28;20203;-75
2023/09/22 09:53:41;;;;;;;2.17;1.00;;;15.10;99.90;;;;;;5046181;28;20232;-75
2023/09/22 09:56:15;;;;;;;2.70;1.20;;;15.10;99.90;;;;;;5056275;28;20205;-76
2023/09/22 09:58:48;;;;;;;3.25;1.02;;;15.10;99.90;;;;;;5056365;28;20201;-75
2023/09/22 10:01:20;;;;;;;1.65;1.00;;;15.10;99.90;;;;;;5051987;28;20206;-75
2023/09/22 10:03:51;;;;;;;2.33;0.98;;;15.00;99.90;;;;;;5055403;28;20281;-75
2023/09/22 10:06:25;;;;;;;3.17;1.00;;;15.00;99.90;;;;;;5056211;28;20225;-75
2023/09/22 10:08:56;;;;;;;2.35;1.00;;;14.90;99.90;;;;;;5039826;28;20198;-75
2023/09/22 10:11:29;;;;;;;2.80;0.90;;;14.90;99.90;;;;;;5044142;28;20210;-75
2023/09/22 10:14:01;;;;;;;2.42;1.20;;;14.90;99.90;;;;;;5045900;28;20280;-76
2023/09/22 10:16:32;;;;;;;4.60;1.17;;;14.80;99.90;;;;;;5039829;28;20286;-75
2023/09/22 10:19:03;;;;;;;2.20;1.10;;;14.80;99.90;;;;;;5046701;28;20202;-75
2023/09/22 10:21:45;;;;;;;2.90;1.13;;;14.80;99.90;;;;;;5035213;28;20561;-75
2023/09/22 10:24:32;;;;;;;3.00;1.15;;;14.70;99.90;;;;;;5048934;28;20225;-75
2023/09/22 10:27:17;;;;;;;3.88;1.40;;;14.70;99.90;;;;;;5055435;28;20193;-75
2023/09/22 10:29:56;;;;;;;4.38;1.60;;;14.70;99.90;;;;;;5043811;28;20236;-75
2023/09/22 10:32:27;;;;;;;4.32;1.35;;;14.70;99.90;;;;;;5050518;28;20213;-75
2023/09/22 10:35:05;;;;;;;3.22;1.23;;;14.70;99.90;;;;;;5054235;28;20202;-76
2023/09/22 10:37:36;;;;;;;6.40;1.50;;;14.70;99.90;;;;;;5054239;28;20198;-75
2023/09/22 10:40:11;;;;;;;3.92;0.98;;;14.60;99.90;;;;;;5049975;28;20198;-75
2023/09/22 10:42:45;;;;;;;2.20;1.08;;;14.60;99.90;;;;;;5048690;28;20200;-76
2023/09/22 10:45:19;;;;;;;3.70;1.33;;;14.60;99.90;;;;;;5044432;28;20666;-76
2023/09/22 10:47:51;;;;;;;4.10;1.42;;;14.50;99.90;;;;;;5035378;28;20198;-76
2023/09/22 10:50:24;;;;;;;4.78;1.20;;;14.50;99.90;;;;;;5048065;28;20236;-76
2023/09/22 10:52:57;;;;;;;3.53;1.05;;;14.50;99.90;;;;;;5053740;28;20217;-76
2023/09/22 10:55:34;;;;;;;5.32;1.38;;;14.40;99.90;;;;;;5041346;28;20200;-76
2023/09/22 10:58:06;;;;;;;3.35;1.40;;;14.50;99.90;;;;;;5041950;28;20206;-76
2023/09/22 11:00:39;;;;;;;5.28;1.65;;;14.40;99.90;;;;;;5037441;28;20213;-75
2023/09/22 11:03:12;;;;;;;4.78;1.80;;;14.30;99.90;;;;;;5045798;28;20204;-76
2023/09/22 11:05:43;;;;;;;5.97;1.88;;;14.40;99.90;;;;;;5054254;28;20265;-76
2023/09/22 11:08:17;;;;;;;5.47;2.00;;;14.40;99.90;;;;;;5053402;28;20197;-76
2023/09/22 11:10:52;;;;;;;4.47;2.28;;;14.30;99.90;;;;;;5049899;28;20196;-76
2023/09/22 11:13:23;;;;;;;6.97;2.17;;;14.30;99.90;;;;;;5054536;28;20692;-75
2023/09/22 11:15:59;;;;;;;3.20;1.98;;;14.30;99.90;;;;;;5054821;28;20209;-76
2023/09/22 11:18:31;;;;;;;6.80;2.20;;;14.30;99.90;;;;;;5042539;28;20248;-76
2023/09/22 11:21:05;;;;;;;7.63;2.50;;;14.30;99.90;;;;;;5044461;28;20211;-75
2023/09/22 11:23:36;;;;;;;5.53;2.13;;;14.30;99.90;;;;;;5054542;28;20675;-76
2023/09/22 11:26:09;;;;;;;3.47;1.60;;;14.30;99.90;;;;;;5050927;28;20255;-75
2023/09/22 11:28:43;;;;;;;3.55;1.60;;;14.30;99.90;;;;;;5041163;28;20189;-76
2023/09/22 11:31:16;;;;;;;6.25;1.75;;;14.30;99.90;;;;;;5052769;28;20201;-76
2023/09/22 11:33:47;;;;;;;6.78;1.70;;;14.30;99.90;;;;;;5039504;28;20208;-76
2023/09/22 11:36:18;;;;;;;3.17;1.38;;;14.30;99.90;;;;;;5037148;28;20667;-76
2023/09/22 11:38:56;;;;;;;3.33;1.35;;;14.20;99.90;;;;;;5047243;28;20212;-75
2023/09/22 11:41:27;;;;;;;4.65;1.20;;;14.20;99.90;;;;;;5053483;28;20189;-75
2023/09/22 11:43:58;;;;;;;4.38;1.20;;;14.20;99.90;;;;;;5034715;28;20195;-76
2023/09/22 11:46:31;;;;;;;6.75;1.40;;;14.20;99.90;;;;;;5034467;28;20209;-75
2023/09/22 11:49:02;;;;;;;3.35;1.17;;;14.20;99.90;;;;;;5047822;28;20218;-75
2023/09/22 11:51:48;;;;;;;4.30;1.30;;;14.20;99.90;;;;;;5054386;28;20280;-75
2023/09/22 11:54:19;;;;;;;2.85;1.05;;;14.20;99.90;;;;;;5054308;28;20190;-76
2023/09/22 11:56:51;;;;;;;3.10;1.13;;;14.20;99.90;;;;;;5053670;28;20189;-76
2023/09/22 11:59:22;;;;;;;4.07;1.30;;;14.10;99.90;;;;;;5047518;28;20630;-76
2023/09/22 12:01:55;;;;;;;5.80;1.30;;;14.10;99.90;;;;;;5037919;28;21113;-75
2023/09/22 12:04:26;;;;;;;3.13;0.88;;;14.10;99.90;;;;;;5037270;28;20285;-75
2023/09/22 12:06:57;;;;;;;2.88;1.08;;;14.10;99.90;;;;;;5034608;28;20600;-76
2023/09/22 12:09:27;;;;;;;5.57;1.10;;;14.10;99.90;;;;;;5041249;28;20194;-76
2023/09/22 12:11:58;;;;;;;2.95;0.95;;;14.10;99.90;;;;;;5043509;28;20218;-75
2023/09/22 12:14:29;;;;;;;3.20;0.98;;;14.00;99.90;;;;;;5039372;28;20206;-76
2023/09/22 12:17:02;;;;;;;5.35;1.13;;;14.00;99.90;;;;;;5040676;28;20240;-75
2023/09/22 12:19:33;;;;;;;2.40;0.90;;;14.00;99.90;;;;;;5050384;28;20193;-75
2023/09/22 12:22:03;;;;;;;6.20;1.10;;;14.00;99.90;;;;;;5053770;28;20202;-75
2023/09/22 12:24:34;;;;;;;3.50;1.13;;;13.90;99.90;;;;;;5054175;28;20206;-75
2023/09/22 12:27:05;;;;;;;3.40;0.90;;;13.90;99.90;;;;;;5053380;28;20638;-75
2023/09/22 12:29:36;;;;;;;3.88;1.10;;;13.90;99.90;;;;;;5052539;28;20254;-75
2023/09/22 12:32:10;;;;;;;5.20;1.33;;;13.90;99.90;;;;;;5051715;28;20221;-75
2023/09/22 12:34:41;;;;;;;4.55;0.93;;;13.90;99.90;;;;;;5047839;28;20606;-75
2023/09/22 12:37:11;;;;;;;2.95;1.10;;;13.80;99.90;;;;;;5033697;28;20190;-75
2023/09/22 12:39:42;;;;;;;3.22;1.20;;;13.80;99.90;;;;;;5033625;28;20273;-75
2023/09/22 12:42:13;;;;;;;3.70;1.35;;;13.80;99.90;;;;;;5033693;28;20706;-75
2023/09/22 12:44:44;;;;;;;2.38;1.20;;;13.80;99.90;;;;;;5047333;28;20194;-75
2023/09/22 12:47:17;;;;;;;2.38;1.10;;;13.80;99.90;;;;;;5051696;28;20210;-75
2023/09/22 12:49:48;;;;;;;4.28;1.27;;;13.80;99.90;;;;;;5049912;28;20220;-76
2023/09/22 12:52:19;;;;;;;4.32;1.38;;;13.80;99.90;;;;;;5049286;28;20298;-76
2023/09/22 12:54:50;;;;;;;2.67;1.20;;;13.80;99.90;;;;;;5037911;28;20202;-76
2023/09/22 12:57:21;;;;;;;4.93;1.40;;;13.80;99.90;;;;;;5032135;28;20548;-76
2023/09/22 12:59:51;;;;;;;3.55;1.60;;;13.70;99.90;;;;;;5032729;28;20670;-76
2023/09/22 13:02:24;;;;;;;6.03;1.55;;;13.70;99.90;;;;;;5040992;28;20618;-75
2023/09/22 13:04:55;;;;;;;7.57;1.80;;;13.70;99.90;;;;;;5048142;28;20206;-76
2023/09/22 13:07:26;;;;;;;3.50;1.40;;;13.70;99.90;;;;;;5024553;28;20278;-76
2023/09/22 13:09:57;;;;;;;5.85;1.50;;;13.70;99.90;;;;;;5013555;28;20199;-76
2023/09/22 13:12:28;;;;;;;5.53;1.60;;;13.60;99.90;;;;;;5030478;28;20223;-76